sensor_id;sensor_type;location;lat;lon;timestamp;temperature;humidity
80540;DHT22;69869;48.036;15.780;2023-08-20T00:00:28;22.10;91.70
80540;DHT22;69869;48.036;15.780;2023-08-20T00:02:59;22.10;91.70
80540;DHT22;69869;48.036;15.780;2023-08-20T00:05:29;22.10;91.80
80540;DHT22;69869;48.036;15.780;2023-08-20T00:07:54;22.10;91.70
80540;DHT22;69869;48.036;15.780;2023-08-20T00:10:20;22.10;91.70
80540;DHT22;69869;48.036;15.780;2023-08-20T00:12:46;22.10;91.70
80540;DHT22;69869;48.036;15.780;2023-08-20T00:15:11;22.10;91.80
80540;DHT22;69869;48.036;15.780;2023-08-20T00:17:38;22.10;91.80
80540;DHT22;69869;48.036;15.780;2023-08-20T00:20:06;22.10;91.70
80540;DHT22;69869;48.036;15.780;2023-08-20T00:22:42;22.10;91.70
80540;DHT22;69869;48.036;15.780;2023-08-20T00:25:11;22.10;91.70
80540;DHT22;69869;48.036;15.780;2023-08-20T00:27:37;22.10;91.70
80540;DHT22;69869;48.036;15.780;2023-08-20T00:30:03;22.10;91.70
80540;DHT22;69869;48.036;15.780;2023-08-20T00:32:29;22.10;91.70
80540;DHT22;69869;48.036;15.780;2023-08-20T00:34:55;22.10;91.70
80540;DHT22;69869;48.036;15.780;2023-08-20T00:37:21;22.10;91.80
80540;DHT22;69869;48.036;15.780;2023-08-20T00:39:47;22.10;91.80
80540;DHT22;69869;48.036;15.780;2023-08-20T00:42:12;22.10;91.80
80540;DHT22;69869;48.036;15.780;2023-08-20T00:44:41;22.10;91.80
80540;DHT22;69869;48.036;15.780;2023-08-20T00:47:09;22.10;91.80
80540;DHT22;69869;48.036;15.780;2023-08-20T00:49:36;22.10;91.70
80540;DHT22;69869;48.036;15.780;2023-08-20T00:52:03;22.10;91.70
80540;DHT22;69869;48.036;15.780;2023-08-20T00:54:29;22.10;91.60
80540;DHT22;69869;48.036;15.780;2023-08-20T00:56:56;22.10;91.70
80540;DHT22;69869;48.036;15.780;2023-08-20T00:59:22;22.10;91.60
80540;DHT22;69869;48.036;15.780;2023-08-20T01:01:48;22.10;91.60
80540;DHT22;69869;48.036;15.780;2023-08-20T01:04:14;22.10;91.70
80540;DHT22;69869;48.036;15.780;2023-08-20T01:06:53;22.10;91.80
80540;DHT22;69869;48.036;15.780;2023-08-20T01:12:02;22.10;92.00
80540;DHT22;69869;48.036;15.780;2023-08-20T01:14:28;22.10;91.80
80540;DHT22;69869;48.036;15.780;2023-08-20T01:16:54;22.10;91.80
80540;DHT22;69869;48.036;15.780;2023-08-20T01:19:22;22.10;91.70
80540;DHT22;69869;48.036;15.780;2023-08-20T01:21:56;22.10;91.70
80540;DHT22;69869;48.036;15.780;2023-08-20T01:29:39;22.10;91.80
80540;DHT22;69869;48.036;15.780;2023-08-20T01:32:05;22.10;91.70
80540;DHT22;69869;48.036;15.780;2023-08-20T01:34:31;22.10;91.70
80540;DHT22;69869;48.036;15.780;2023-08-20T01:36:57;22.10;91.80
80540;DHT22;69869;48.036;15.780;2023-08-20T01:39:22;22.10;92.00
80540;DHT22;69869;48.036;15.780;2023-08-20T01:41:49;22.10;91.80
80540;DHT22;69869;48.036;15.780;2023-08-20T01:44:14;22.10;91.70
80540;DHT22;69869;48.036;15.780;2023-08-20T01:46:40;22.10;91.70
80540;DHT22;69869;48.036;15.780;2023-08-20T01:49:05;22.10;91.70
80540;DHT22;69869;48.036;15.780;2023-08-20T01:51:31;22.10;91.80
80540;DHT22;69869;48.036;15.780;2023-08-20T01:53:57;22.10;91.70
80540;DHT22;69869;48.036;15.780;2023-08-20T01:56:22;22.10;91.70
80540;DHT22;69869;48.036;15.780;2023-08-20T01:58:50;22.10;91.80
80540;DHT22;69869;48.036;15.780;2023-08-20T02:01:15;22.10;91.60
80540;DHT22;69869;48.036;15.780;2023-08-20T02:03:41;22.10;91.70
80540;DHT22;69869;48.036;15.780;2023-08-20T02:06:06;22.10;91.70
80540;DHT22;69869;48.036;15.780;2023-08-20T02:08:32;22.10;91.70
80540;DHT22;69869;48.036;15.780;2023-08-20T02:11:04;22.10;91.70
80540;DHT22;69869;48.036;15.780;2023-08-20T02:13:33;22.10;91.60
80540;DHT22;69869;48.036;15.780;2023-08-20T02:16:02;22.10;91.60
80540;DHT22;69869;48.036;15.780;2023-08-20T02:18:29;22.10;91.70
80540;DHT22;69869;48.036;15.780;2023-08-20T02:20:55;22.10;91.80
80540;DHT22;69869;48.036;15.780;2023-08-20T02:23:20;22.10;91.70
80540;DHT22;69869;48.036;15.780;2023-08-20T02:25:47;22.10;91.70
80540;DHT22;69869;48.036;15.780;2023-08-20T02:28:12;22.10;91.60
80540;DHT22;69869;48.036;15.780;2023-08-20T02:30:41;22.10;91.80
80540;DHT22;69869;48.036;15.780;2023-08-20T02:33:06;22.10;91.70
80540;DHT22;69869;48.036;15.780;2023-08-20T02:35:32;22.10;91.90
80540;DHT22;69869;48.036;15.780;2023-08-20T02:37:58;22.10;91.80
80540;DHT22;69869;48.036;15.780;2023-08-20T02:40:23;22.10;91.80
80540;DHT22;69869;48.036;15.780;2023-08-20T02:42:49;22.10;91.80
80540;DHT22;69869;48.036;15.780;2023-08-20T02:45:15;22.10;91.70
80540;DHT22;69869;48.036;15.780;2023-08-20T02:47:40;22.10;91.70
80540;DHT22;69869;48.036;15.780;2023-08-20T02:50:06;22.10;91.80
80540;DHT22;69869;48.036;15.780;2023-08-20T02:52:32;22.10;91.80
80540;DHT22;69869;48.036;15.780;2023-08-20T02:54:57;22.10;91.80
80540;DHT22;69869;48.036;15.780;2023-08-20T02:57:23;22.10;91.80
80540;DHT22;69869;48.036;15.780;2023-08-20T02:59:48;22.10;91.80
80540;DHT22;69869;48.036;15.780;2023-08-20T03:02:14;22.10;91.80
80540;DHT22;69869;48.036;15.780;2023-08-20T03:04:40;22.10;91.90
80540;DHT22;69869;48.036;15.780;2023-08-20T03:07:05;22.10;91.90
80540;DHT22;69869;48.036;15.780;2023-08-20T03:09:31;22.10;91.90
80540;DHT22;69869;48.036;15.780;2023-08-20T03:11:57;22.10;91.90
80540;DHT22;69869;48.036;15.780;2023-08-20T03:14:23;22.10;91.80
80540;DHT22;69869;48.036;15.780;2023-08-20T03:16:50;22.10;91.90
80540;DHT22;69869;48.036;15.780;2023-08-20T03:19:18;22.10;91.90
80540;DHT22;69869;48.036;15.780;2023-08-20T03:21:43;22.10;91.80
80540;DHT22;69869;48.036;15.780;2023-08-20T03:24:09;22.10;91.60
80540;DHT22;69869;48.036;15.780;2023-08-20T03:26:34;22.10;91.50
80540;DHT22;69869;48.036;15.780;2023-08-20T03:29:00;22.10;91.80
80540;DHT22;69869;48.036;15.780;2023-08-20T03:31:26;22.10;91.80
80540;DHT22;69869;48.036;15.780;2023-08-20T03:33:51;22.10;91.70
80540;DHT22;69869;48.036;15.780;2023-08-20T03:36:17;22.10;91.80
80540;DHT22;69869;48.036;15.780;2023-08-20T03:38:43;22.10;91.80
80540;DHT22;69869;48.036;15.780;2023-08-20T03:41:08;22.10;91.70
80540;DHT22;69869;48.036;15.780;2023-08-20T03:43:34;22.10;91.70
80540;DHT22;69869;48.036;15.780;2023-08-20T03:46:01;22.10;91.80
80540;DHT22;69869;48.036;15.780;2023-08-20T03:48:26;22.10;91.80
80540;DHT22;69869;48.036;15.780;2023-08-20T03:50:52;22.10;91.80
80540;DHT22;69869;48.036;15.780;2023-08-20T03:53:18;22.10;91.80
80540;DHT22;69869;48.036;15.780;2023-08-20T03:55:52;22.10;91.80
80540;DHT22;69869;48.036;15.780;2023-08-20T03:58:18;22.10;91.70
80540;DHT22;69869;48.036;15.780;2023-08-20T04:00:44;22.10;91.80
80540;DHT22;69869;48.036;15.780;2023-08-20T04:03:10;22.10;91.70
80540;DHT22;69869;48.036;15.780;2023-08-20T04:05:39;22.10;91.70
80540;DHT22;69869;48.036;15.780;2023-08-20T04:08:05;22.10;91.80
80540;DHT22;69869;48.036;15.780;2023-08-20T04:10:31;22.10;91.60
80540;DHT22;69869;48.036;15.780;2023-08-20T04:12:58;22.10;91.80
80540;DHT22;69869;48.036;15.780;2023-08-20T04:15:24;22.10;91.80
80540;DHT22;69869;48.036;15.780;2023-08-20T04:17:49;22.10;91.80
80540;DHT22;69869;48.036;15.780;2023-08-20T04:20:15;22.10;91.70
80540;DHT22;69869;48.036;15.780;2023-08-20T04:22:41;22.10;91.80
80540;DHT22;69869;48.036;15.780;2023-08-20T04:25:07;22.10;91.80
80540;DHT22;69869;48.036;15.780;2023-08-20T04:27:33;22.10;91.80
80540;DHT22;69869;48.036;15.780;2023-08-20T04:29:59;22.10;92.10
80540;DHT22;69869;48.036;15.780;2023-08-20T04:32:24;22.10;91.80
80540;DHT22;69869;48.036;15.780;2023-08-20T04:34:50;22.10;91.80
80540;DHT22;69869;48.036;15.780;2023-08-20T04:37:19;22.10;91.70
80540;DHT22;69869;48.036;15.780;2023-08-20T04:39:44;22.10;91.80
80540;DHT22;69869;48.036;15.780;2023-08-20T04:42:10;22.10;91.80
80540;DHT22;69869;48.036;15.780;2023-08-20T04:44:36;22.10;91.80
80540;DHT22;69869;48.036;15.780;2023-08-20T04:47:01;22.10;92.10
80540;DHT22;69869;48.036;15.780;2023-08-20T04:49:27;22.10;91.70
80540;DHT22;69869;48.036;15.780;2023-08-20T04:51:54;22.10;91.70
80540;DHT22;69869;48.036;15.780;2023-08-20T04:54:20;22.10;91.80
80540;DHT22;69869;48.036;15.780;2023-08-20T04:56:46;22.10;91.80
80540;DHT22;69869;48.036;15.780;2023-08-20T04:59:13;22.10;91.70
80540;DHT22;69869;48.036;15.780;2023-08-20T05:01:38;22.10;91.70
80540;DHT22;69869;48.036;15.780;2023-08-20T05:04:04;22.10;91.70
80540;DHT22;69869;48.036;15.780;2023-08-20T05:06:30;22.10;91.70
80540;DHT22;69869;48.036;15.780;2023-08-20T05:08:56;22.10;91.80
80540;DHT22;69869;48.036;15.780;2023-08-20T05:11:21;22.10;91.80
80540;DHT22;69869;48.036;15.780;2023-08-20T05:13:49;22.10;91.70
80540;DHT22;69869;48.036;15.780;2023-08-20T05:16:15;22.10;91.70
80540;DHT22;69869;48.036;15.780;2023-08-20T05:18:40;22.10;91.70
80540;DHT22;69869;48.036;15.780;2023-08-20T05:21:06;22.10;91.70
80540;DHT22;69869;48.036;15.780;2023-08-20T05:23:32;22.10;91.70
80540;DHT22;69869;48.036;15.780;2023-08-20T05:25:57;22.10;91.70
80540;DHT22;69869;48.036;15.780;2023-08-20T05:28:23;22.10;91.90
80540;DHT22;69869;48.036;15.780;2023-08-20T05:30:55;22.10;91.70
80540;DHT22;69869;48.036;15.780;2023-08-20T05:33:22;22.10;91.60
80540;DHT22;69869;48.036;15.780;2023-08-20T05:35:48;22.10;91.70
80540;DHT22;69869;48.036;15.780;2023-08-20T05:38:14;22.10;91.70
80540;DHT22;69869;48.036;15.780;2023-08-20T05:40:39;22.10;91.70
80540;DHT22;69869;48.036;15.780;2023-08-20T05:43:05;22.10;91.70
80540;DHT22;69869;48.036;15.780;2023-08-20T05:45:31;22.10;91.70
80540;DHT22;69869;48.036;15.780;2023-08-20T05:47:56;22.10;91.60
80540;DHT22;69869;48.036;15.780;2023-08-20T05:50:22;22.10;91.70
80540;DHT22;69869;48.036;15.780;2023-08-20T05:52:48;22.10;91.70
80540;DHT22;69869;48.036;15.780;2023-08-20T05:55:14;22.10;91.70
80540;DHT22;69869;48.036;15.780;2023-08-20T05:57:41;22.10;91.70
80540;DHT22;69869;48.036;15.780;2023-08-20T06:00:09;22.10;91.60
80540;DHT22;69869;48.036;15.780;2023-08-20T06:02:36;22.10;91.70
80540;DHT22;69869;48.036;15.780;2023-08-20T06:05:02;22.10;91.70
80540;DHT22;69869;48.036;15.780;2023-08-20T06:07:30;22.10;91.50
80540;DHT22;69869;48.036;15.780;2023-08-20T06:09:56;22.00;91.60
80540;DHT22;69869;48.036;15.780;2023-08-20T06:12:22;22.10;91.60
80540;DHT22;69869;48.036;15.780;2023-08-20T06:14:48;22.10;91.70
80540;DHT22;69869;48.036;15.780;2023-08-20T06:17:14;22.10;91.60
80540;DHT22;69869;48.036;15.780;2023-08-20T06:19:40;22.10;91.50
80540;DHT22;69869;48.036;15.780;2023-08-20T06:22:05;22.10;91.70
80540;DHT22;69869;48.036;15.780;2023-08-20T06:24:31;22.10;91.70
80540;DHT22;69869;48.036;15.780;2023-08-20T06:26:57;22.10;91.60
80540;DHT22;69869;48.036;15.780;2023-08-20T06:29:22;22.10;91.60
80540;DHT22;69869;48.036;15.780;2023-08-20T06:31:48;22.10;91.70
80540;DHT22;69869;48.036;15.780;2023-08-20T06:34:14;22.10;91.60
80540;DHT22;69869;48.036;15.780;2023-08-20T06:36:40;22.10;91.60
80540;DHT22;69869;48.036;15.780;2023-08-20T06:39:06;22.10;91.60
80540;DHT22;69869;48.036;15.780;2023-08-20T06:41:31;22.10;91.60
80540;DHT22;69869;48.036;15.780;2023-08-20T06:43:57;22.10;91.60
80540;DHT22;69869;48.036;15.780;2023-08-20T06:46:23;22.10;91.60
80540;DHT22;69869;48.036;15.780;2023-08-20T06:48:48;22.00;91.60
80540;DHT22;69869;48.036;15.780;2023-08-20T06:51:14;22.00;91.60
80540;DHT22;69869;48.036;15.780;2023-08-20T06:53:43;22.00;91.50
80540;DHT22;69869;48.036;15.780;2023-08-20T06:56:09;22.00;91.60
80540;DHT22;69869;48.036;15.780;2023-08-20T06:58:35;22.00;91.50
80540;DHT22;69869;48.036;15.780;2023-08-20T07:01:01;22.00;91.50
80540;DHT22;69869;48.036;15.780;2023-08-20T07:03:40;22.00;91.60
80540;DHT22;69869;48.036;15.780;2023-08-20T07:06:06;22.00;91.60
80540;DHT22;69869;48.036;15.780;2023-08-20T07:08:32;22.00;91.60
80540;DHT22;69869;48.036;15.780;2023-08-20T07:10:58;22.00;91.60
80540;DHT22;69869;48.036;15.780;2023-08-20T07:13:24;22.00;91.60
80540;DHT22;69869;48.036;15.780;2023-08-20T07:15:50;22.10;91.60
80540;DHT22;69869;48.036;15.780;2023-08-20T07:18:16;22.00;91.60
80540;DHT22;69869;48.036;15.780;2023-08-20T07:20:42;22.10;91.60
80540;DHT22;69869;48.036;15.780;2023-08-20T07:23:09;22.00;91.50
80540;DHT22;69869;48.036;15.780;2023-08-20T07:25:39;22.10;91.60
80540;DHT22;69869;48.036;15.780;2023-08-20T07:28:06;22.10;91.60
80540;DHT22;69869;48.036;15.780;2023-08-20T07:30:32;22.00;91.60
80540;DHT22;69869;48.036;15.780;2023-08-20T07:32:58;22.00;91.60
80540;DHT22;69869;48.036;15.780;2023-08-20T07:35:24;22.00;91.60
80540;DHT22;69869;48.036;15.780;2023-08-20T07:37:50;22.00;91.60
80540;DHT22;69869;48.036;15.780;2023-08-20T07:40:16;22.10;91.50
80540;DHT22;69869;48.036;15.780;2023-08-20T07:42:42;22.00;91.50
80540;DHT22;69869;48.036;15.780;2023-08-20T07:45:08;22.00;91.50
80540;DHT22;69869;48.036;15.780;2023-08-20T07:47:36;22.00;91.50
80540;DHT22;69869;48.036;15.780;2023-08-20T07:50:05;22.00;91.50
80540;DHT22;69869;48.036;15.780;2023-08-20T07:52:31;22.00;91.50
80540;DHT22;69869;48.036;15.780;2023-08-20T07:54:57;22.00;91.40
80540;DHT22;69869;48.036;15.780;2023-08-20T07:57:23;22.00;91.40
80540;DHT22;69869;48.036;15.780;2023-08-20T07:59:49;22.00;91.50
80540;DHT22;69869;48.036;15.780;2023-08-20T08:02:15;22.00;91.50
80540;DHT22;69869;48.036;15.780;2023-08-20T08:04:42;22.00;91.50
80540;DHT22;69869;48.036;15.780;2023-08-20T08:07:08;22.00;91.50
80540;DHT22;69869;48.036;15.780;2023-08-20T08:09:33;22.00;91.50
80540;DHT22;69869;48.036;15.780;2023-08-20T08:11:59;22.00;91.50
80540;DHT22;69869;48.036;15.780;2023-08-20T08:14:25;22.00;91.60
80540;DHT22;69869;48.036;15.780;2023-08-20T08:16:51;22.00;91.40
80540;DHT22;69869;48.036;15.780;2023-08-20T08:19:17;22.00;91.50
80540;DHT22;69869;48.036;15.780;2023-08-20T08:21:44;22.00;91.50
80540;DHT22;69869;48.036;15.780;2023-08-20T08:24:10;22.10;91.50
80540;DHT22;69869;48.036;15.780;2023-08-20T08:26:36;22.10;91.50
80540;DHT22;69869;48.036;15.780;2023-08-20T08:29:03;22.00;91.40
80540;DHT22;69869;48.036;15.780;2023-08-20T08:31:29;22.00;91.50
80540;DHT22;69869;48.036;15.780;2023-08-20T08:33:55;22.10;91.50
80540;DHT22;69869;48.036;15.780;2023-08-20T08:36:21;22.00;91.50
80540;DHT22;69869;48.036;15.780;2023-08-20T08:38:46;22.00;91.50
80540;DHT22;69869;48.036;15.780;2023-08-20T08:41:13;22.10;91.50
80540;DHT22;69869;48.036;15.780;2023-08-20T08:43:39;22.10;91.50
80540;DHT22;69869;48.036;15.780;2023-08-20T08:46:15;22.00;91.40
80540;DHT22;69869;48.036;15.780;2023-08-20T08:48:45;22.10;91.40
80540;DHT22;69869;48.036;15.780;2023-08-20T08:51:12;22.00;91.40
80540;DHT22;69869;48.036;15.780;2023-08-20T08:53:38;22.10;91.40
80540;DHT22;69869;48.036;15.780;2023-08-20T08:56:03;22.10;91.40
80540;DHT22;69869;48.036;15.780;2023-08-20T08:58:32;22.00;91.30
80540;DHT22;69869;48.036;15.780;2023-08-20T09:00:58;22.10;91.40
80540;DHT22;69869;48.036;15.780;2023-08-20T09:03:23;22.00;91.40
80540;DHT22;69869;48.036;15.780;2023-08-20T09:05:58;22.10;91.50
80540;DHT22;69869;48.036;15.780;2023-08-20T09:08:30;22.10;91.50
80540;DHT22;69869;48.036;15.780;2023-08-20T09:10:57;22.10;91.50
80540;DHT22;69869;48.036;15.780;2023-08-20T09:13:43;22.10;91.40
80540;DHT22;69869;48.036;15.780;2023-08-20T09:16:10;22.10;91.50
80540;DHT22;69869;48.036;15.780;2023-08-20T09:18:41;22.10;91.40
80540;DHT22;69869;48.036;15.780;2023-08-20T09:21:08;22.10;91.40
80540;DHT22;69869;48.036;15.780;2023-08-20T09:23:34;22.10;91.30
80540;DHT22;69869;48.036;15.780;2023-08-20T09:26:02;22.10;91.50
80540;DHT22;69869;48.036;15.780;2023-08-20T09:28:30;22.10;91.50
80540;DHT22;69869;48.036;15.780;2023-08-20T09:31:05;22.10;91.50
80540;DHT22;69869;48.036;15.780;2023-08-20T09:33:31;22.10;91.50
80540;DHT22;69869;48.036;15.780;2023-08-20T09:35:56;22.10;91.50
80540;DHT22;69869;48.036;15.780;2023-08-20T09:38:23;22.10;91.40
80540;DHT22;69869;48.036;15.780;2023-08-20T09:40:53;22.10;91.30
80540;DHT22;69869;48.036;15.780;2023-08-20T09:43:26;22.10;91.30
80540;DHT22;69869;48.036;15.780;2023-08-20T09:45:55;22.10;91.30
80540;DHT22;69869;48.036;15.780;2023-08-20T09:48:23;22.10;91.30
80540;DHT22;69869;48.036;15.780;2023-08-20T09:50:56;22.10;91.20
80540;DHT22;69869;48.036;15.780;2023-08-20T09:53:37;22.10;91.40
80540;DHT22;69869;48.036;15.780;2023-08-20T09:56:29;22.10;91.40
80540;DHT22;69869;48.036;15.780;2023-08-20T09:58:57;22.10;91.20
80540;DHT22;69869;48.036;15.780;2023-08-20T10:01:24;22.10;91.20
80540;DHT22;69869;48.036;15.780;2023-08-20T10:03:50;22.10;91.20
80540;DHT22;69869;48.036;15.780;2023-08-20T10:06:17;22.10;91.10
80540;DHT22;69869;48.036;15.780;2023-08-20T10:08:44;22.10;91.30
80540;DHT22;69869;48.036;15.780;2023-08-20T10:11:12;22.10;91.40
80540;DHT22;69869;48.036;15.780;2023-08-20T10:13:38;22.10;91.60
80540;DHT22;69869;48.036;15.780;2023-08-20T10:16:04;22.10;91.70
80540;DHT22;69869;48.036;15.780;2023-08-20T10:18:29;22.10;91.10
80540;DHT22;69869;48.036;15.780;2023-08-20T10:20:57;22.20;91.20
80540;DHT22;69869;48.036;15.780;2023-08-20T10:23:24;22.10;91.00
80540;DHT22;69869;48.036;15.780;2023-08-20T10:25:52;22.20;91.10
80540;DHT22;69869;48.036;15.780;2023-08-20T10:28:27;22.20;91.20
80540;DHT22;69869;48.036;15.780;2023-08-20T10:31:10;22.20;91.00
80540;DHT22;69869;48.036;15.780;2023-08-20T10:33:53;22.10;91.10
80540;DHT22;69869;48.036;15.780;2023-08-20T10:36:20;22.10;91.20
80540;DHT22;69869;48.036;15.780;2023-08-20T10:38:55;22.10;91.30
80540;DHT22;69869;48.036;15.780;2023-08-20T10:41:28;22.10;91.30
80540;DHT22;69869;48.036;15.780;2023-08-20T10:44:00;22.10;91.30
80540;DHT22;69869;48.036;15.780;2023-08-20T10:46:28;22.10;91.20
80540;DHT22;69869;48.036;15.780;2023-08-20T10:49:01;22.10;91.20
80540;DHT22;69869;48.036;15.780;2023-08-20T10:51:37;22.10;91.20
80540;DHT22;69869;48.036;15.780;2023-08-20T10:54:07;22.10;91.30
80540;DHT22;69869;48.036;15.780;2023-08-20T11:02:01;22.20;90.70
80540;DHT22;69869;48.036;15.780;2023-08-20T11:04:30;22.20;91.10
80540;DHT22;69869;48.036;15.780;2023-08-20T11:06:59;22.20;91.30
80540;DHT22;69869;48.036;15.780;2023-08-20T11:09:28;22.20;91.40
80540;DHT22;69869;48.036;15.780;2023-08-20T11:11:54;22.20;91.30
80540;DHT22;69869;48.036;15.780;2023-08-20T11:14:21;22.10;91.10
80540;DHT22;69869;48.036;15.780;2023-08-20T11:16:48;22.10;91.20
80540;DHT22;69869;48.036;15.780;2023-08-20T11:19:23;22.20;90.70
80540;DHT22;69869;48.036;15.780;2023-08-20T11:21:50;22.20;91.00
80540;DHT22;69869;48.036;15.780;2023-08-20T11:24:16;22.20;90.70
80540;DHT22;69869;48.036;15.780;2023-08-20T11:26:43;22.20;90.50
80540;DHT22;69869;48.036;15.780;2023-08-20T11:29:10;22.30;90.10
80540;DHT22;69869;48.036;15.780;2023-08-20T11:31:38;22.30;90.40
80540;DHT22;69869;48.036;15.780;2023-08-20T11:34:04;22.20;90.90
80540;DHT22;69869;48.036;15.780;2023-08-20T11:36:30;22.20;91.00
80540;DHT22;69869;48.036;15.780;2023-08-20T11:38:56;22.20;91.20
80540;DHT22;69869;48.036;15.780;2023-08-20T11:41:23;22.20;91.00
80540;DHT22;69869;48.036;15.780;2023-08-20T11:43:51;22.20;90.90
80540;DHT22;69869;48.036;15.780;2023-08-20T11:46:19;22.20;90.20
80540;DHT22;69869;48.036;15.780;2023-08-20T11:51:29;22.30;90.30
80540;DHT22;69869;48.036;15.780;2023-08-20T11:53:57;22.20;90.60
80540;DHT22;69869;48.036;15.780;2023-08-20T11:56:22;22.20;90.90
80540;DHT22;69869;48.036;15.780;2023-08-20T11:58:51;22.20;90.50
80540;DHT22;69869;48.036;15.780;2023-08-20T12:01:20;22.20;89.60
80540;DHT22;69869;48.036;15.780;2023-08-20T12:03:46;22.20;90.30
80540;DHT22;69869;48.036;15.780;2023-08-20T12:06:21;22.20;89.20
80540;DHT22;69869;48.036;15.780;2023-08-20T12:08:54;22.20;89.30
80540;DHT22;69869;48.036;15.780;2023-08-20T12:11:24;22.20;90.70
80540;DHT22;69869;48.036;15.780;2023-08-20T12:13:50;22.20;89.20
80540;DHT22;69869;48.036;15.780;2023-08-20T12:16:16;22.20;89.20
80540;DHT22;69869;48.036;15.780;2023-08-20T12:18:42;22.30;88.40
80540;DHT22;69869;48.036;15.780;2023-08-20T12:21:07;22.20;90.10
80540;DHT22;69869;48.036;15.780;2023-08-20T12:23:33;22.20;89.60
80540;DHT22;69869;48.036;15.780;2023-08-20T12:25:59;22.20;89.10
80540;DHT22;69869;48.036;15.780;2023-08-20T12:28:24;22.20;90.20
80540;DHT22;69869;48.036;15.780;2023-08-20T12:30:51;22.20;90.20
80540;DHT22;69869;48.036;15.780;2023-08-20T12:33:17;22.20;89.20
80540;DHT22;69869;48.036;15.780;2023-08-20T12:35:43;22.20;90.20
80540;DHT22;69869;48.036;15.780;2023-08-20T12:38:08;22.20;88.60
80540;DHT22;69869;48.036;15.780;2023-08-20T12:40:34;22.20;88.00
80540;DHT22;69869;48.036;15.780;2023-08-20T12:43:01;22.20;88.10
80540;DHT22;69869;48.036;15.780;2023-08-20T12:45:26;22.20;90.20
80540;DHT22;69869;48.036;15.780;2023-08-20T12:47:52;22.20;88.90
80540;DHT22;69869;48.036;15.780;2023-08-20T12:50:19;22.20;89.80
80540;DHT22;69869;48.036;15.780;2023-08-20T12:52:44;22.20;90.20
80540;DHT22;69869;48.036;15.780;2023-08-20T12:55:12;22.20;90.50
80540;DHT22;69869;48.036;15.780;2023-08-20T12:57:52;22.20;89.20
80540;DHT22;69869;48.036;15.780;2023-08-20T13:00:18;22.20;89.40
80540;DHT22;69869;48.036;15.780;2023-08-20T13:02:44;22.20;89.90
80540;DHT22;69869;48.036;15.780;2023-08-20T13:05:10;22.20;89.70
80540;DHT22;69869;48.036;15.780;2023-08-20T13:07:36;22.30;88.80
80540;DHT22;69869;48.036;15.780;2023-08-20T13:10:03;22.30;87.70
80540;DHT22;69869;48.036;15.780;2023-08-20T13:12:32;22.30;87.60
80540;DHT22;69869;48.036;15.780;2023-08-20T13:14:59;22.30;86.80
80540;DHT22;69869;48.036;15.780;2023-08-20T13:17:25;22.30;87.10
80540;DHT22;69869;48.036;15.780;2023-08-20T13:19:51;22.30;87.10
80540;DHT22;69869;48.036;15.780;2023-08-20T13:22:17;22.30;87.00
80540;DHT22;69869;48.036;15.780;2023-08-20T13:24:43;22.30;86.40
80540;DHT22;69869;48.036;15.780;2023-08-20T13:27:09;22.30;86.50
80540;DHT22;69869;48.036;15.780;2023-08-20T13:29:34;22.30;87.20
80540;DHT22;69869;48.036;15.780;2023-08-20T13:32:00;22.30;86.80
80540;DHT22;69869;48.036;15.780;2023-08-20T13:34:26;22.30;89.30
80540;DHT22;69869;48.036;15.780;2023-08-20T13:36:52;22.20;90.00
80540;DHT22;69869;48.036;15.780;2023-08-20T13:39:17;22.20;90.40
80540;DHT22;69869;48.036;15.780;2023-08-20T13:41:45;22.20;90.60
80540;DHT22;69869;48.036;15.780;2023-08-20T13:44:11;22.20;90.50
80540;DHT22;69869;48.036;15.780;2023-08-20T13:46:37;22.20;90.80
80540;DHT22;69869;48.036;15.780;2023-08-20T13:49:03;22.20;90.70
80540;DHT22;69869;48.036;15.780;2023-08-20T13:51:29;22.10;90.10
80540;DHT22;69869;48.036;15.780;2023-08-20T13:53:55;22.20;89.90
80540;DHT22;69869;48.036;15.780;2023-08-20T13:56:21;22.20;89.20
80540;DHT22;69869;48.036;15.780;2023-08-20T13:58:47;22.20;87.90
80540;DHT22;69869;48.036;15.780;2023-08-20T14:01:13;22.20;90.20
80540;DHT22;69869;48.036;15.780;2023-08-20T14:03:39;22.20;90.20
80540;DHT22;69869;48.036;15.780;2023-08-20T14:06:05;22.20;89.10
80540;DHT22;69869;48.036;15.780;2023-08-20T14:08:32;22.30;90.00
80540;DHT22;69869;48.036;15.780;2023-08-20T14:10:58;22.20;89.20
80540;DHT22;69869;48.036;15.780;2023-08-20T14:13:23;22.30;89.30
80540;DHT22;69869;48.036;15.780;2023-08-20T14:15:50;22.30;88.90
80540;DHT22;69869;48.036;15.780;2023-08-20T14:18:15;22.20;88.40
80540;DHT22;69869;48.036;15.780;2023-08-20T14:20:41;22.30;88.50
80540;DHT22;69869;48.036;15.780;2023-08-20T14:23:06;22.30;88.90
80540;DHT22;69869;48.036;15.780;2023-08-20T14:25:32;22.30;88.30
80540;DHT22;69869;48.036;15.780;2023-08-20T14:27:58;22.30;90.00
80540;DHT22;69869;48.036;15.780;2023-08-20T14:30:23;22.20;89.50
80540;DHT22;69869;48.036;15.780;2023-08-20T14:32:49;22.20;88.80
80540;DHT22;69869;48.036;15.780;2023-08-20T14:35:15;22.30;89.20
80540;DHT22;69869;48.036;15.780;2023-08-20T14:37:40;22.30;88.50
80540;DHT22;69869;48.036;15.780;2023-08-20T14:40:06;22.30;88.40
80540;DHT22;69869;48.036;15.780;2023-08-20T14:42:35;22.30;88.30
80540;DHT22;69869;48.036;15.780;2023-08-20T14:45:01;22.30;89.90
80540;DHT22;69869;48.036;15.780;2023-08-20T14:47:29;22.30;90.20
80540;DHT22;69869;48.036;15.780;2023-08-20T14:49:55;22.30;89.30
80540;DHT22;69869;48.036;15.780;2023-08-20T14:52:20;22.30;89.70
80540;DHT22;69869;48.036;15.780;2023-08-20T14:54:46;22.30;90.20
80540;DHT22;69869;48.036;15.780;2023-08-20T14:57:12;22.30;90.60
80540;DHT22;69869;48.036;15.780;2023-08-20T14:59:38;22.30;90.10
80540;DHT22;69869;48.036;15.780;2023-08-20T15:02:04;22.30;90.30
80540;DHT22;69869;48.036;15.780;2023-08-20T15:04:29;22.40;89.40
80540;DHT22;69869;48.036;15.780;2023-08-20T15:06:55;22.40;90.10
80540;DHT22;69869;48.036;15.780;2023-08-20T15:09:21;22.40;89.40
80540;DHT22;69869;48.036;15.780;2023-08-20T15:11:46;22.50;89.00
80540;DHT22;69869;48.036;15.780;2023-08-20T15:14:12;22.50;89.50
80540;DHT22;69869;48.036;15.780;2023-08-20T15:16:38;22.50;89.20
80540;DHT22;69869;48.036;15.780;2023-08-20T15:19:03;22.60;88.60
80540;DHT22;69869;48.036;15.780;2023-08-20T15:21:29;22.60;89.20
80540;DHT22;69869;48.036;15.780;2023-08-20T15:23:55;22.50;89.40
80540;DHT22;69869;48.036;15.780;2023-08-20T15:26:20;22.50;89.50
80540;DHT22;69869;48.036;15.780;2023-08-20T15:28:46;22.50;90.00